Аэропорт: Храброво. Калининград

ICAO: UMKK

METAR:
2018/09/23 11:00
UMKK 231100Z 24010MPS 9999 BKN026 16/09 Q1009 R24/CLRD60 NOSIG RMK QFE755/1007
METAR:
2018/09/20 15:30
TAF TAF UMKK 201400Z 2015/2115 VRB01MPS 9999 SCT030 
      TEMPO 2018/2105 3100 BR SCT011 
      BECMG 2021/2023 16003G08MPS 
      BECMG 2109/2111 17006G12MPS